Naples, FL (34117)

2:50 AM EDT on March 23, 2017 (GMT -0400)
GOLDEN GATE ESTATES | | Change Station

Elev 33 ft 26.22 °N, 81.64 °W | Updated 23 seconds ago

Clear
Clear
56.9 °F
Feels Like 56.9 °F
N
0.0
Wind Variable Wind from NW

Today
High -- | Low -- °F
--% Chance of Precip.
Yesterday
High -- | Low -- °F
Precip. -- in
Pressure 30.13 in
Visibility 10.0 miles
Clouds Scattered Clouds 1300 ft
Dew Point 56 °F
Humidity 98%
Rainfall 0.00 in
Snow Depth Not available.
7:26 AM 7:39 PM
Waning Crescent, 26% visible
SPECI KAPF 230620Z AUTO 00000KT 10SM SCT013 20/19 A3013 RMK AO2 T02000189 $
Pressure 30.13 in
Visibility 10.0 miles
Clouds Scattered Clouds 1300 ft
Dew Point 56 °F
Humidity 98%
Rainfall 0.00 in
Snow Depth Not available.
7:26 AM 7:39 PM
Waning Crescent, 26% visible
SPECI KAPF 230620Z AUTO 00000KT 10SM SCT013 20/19 A3013 RMK AO2 T02000189 $

Get Severe Weather Alerts

Thanks for signing up!

Be on the lookout for a verification email in your inbox.

You'll start receiving the daily forecast at 8 AM.

×

10-Day Weather Forecast

Almanac

Astronomy

Mar. 23, 2017 Rise Set
Actual Time
Civil Twilight
Nautical Twilight
Astronomical Twilight
Moon
Length of Visible Light
Length of Day
Tomorrow will be .
, % of the Moon is Illuminated

Today's Extremes

State Highs State Lows

Community

WunderPhotos

Upload Photos

1,962,540 photos uploaded!

WunderBlog® & News

Nearby

Air Quality

  Air Quality AQ Index Pollutant
Not available.

Snow Depth

Station Depth Elevation

Earthquake Activity

City Distance Mag. Time & Date
Minimum magnitude displayed is 2.5.

Earthquake Activity

City Distance Mag. Time & Date
Minimum magnitude displayed is 2.5.

Coastal Water Temperatures

Place Temperature

Stations

Nearby Weather Stations

Station Location Temp. Windchill Dew Point Humidity Wind Precip. Elev Updated Type
                   

Watches & Warnings

There are currently no watches in effect.